createdAt,value
2023-04-15T00:00:08.739Z,57.33
2023-04-15T00:01:08.775Z,57.97
2023-04-15T00:02:08.844Z,57.58
2023-04-15T00:03:09.031Z,57.23
2023-04-15T00:04:08.952Z,57.09
2023-04-15T00:05:08.919Z,57.27
2023-04-15T00:06:09.008Z,56.66
2023-04-15T00:07:08.972Z,56.17
2023-04-15T00:08:09.002Z,55.83
2023-04-15T00:09:09.057Z,55.40
2023-04-15T00:10:09.160Z,54.92
2023-04-15T00:11:09.258Z,54.91
2023-04-15T00:12:09.336Z,54.73
2023-04-15T00:13:09.474Z,54.89
2023-04-15T00:14:09.509Z,54.63
2023-04-15T00:15:09.607Z,54.67
2023-04-15T00:16:09.703Z,54.70
2023-04-15T00:17:09.734Z,54.10
2023-04-15T00:18:09.856Z,55.19
2023-04-15T00:19:10.068Z,55.09
2023-04-15T00:20:10.335Z,55.11
2023-04-15T00:21:10.593Z,55.51
2023-04-15T00:22:10.814Z,55.86
2023-04-15T00:23:11.080Z,57.26
2023-04-15T00:24:11.372Z,58.22
2023-04-15T00:25:11.500Z,58.19
2023-04-15T00:26:11.613Z,56.84
2023-04-15T00:27:11.750Z,56.65
2023-04-15T00:28:11.838Z,57.66
2023-04-15T00:29:11.933Z,57.29
2023-04-15T00:30:12.014Z,57.90
2023-04-15T00:31:12.131Z,56.07
2023-04-15T00:32:12.307Z,54.86
2023-04-15T00:33:12.565Z,54.77
2023-04-15T00:34:12.717Z,53.92
2023-04-15T00:35:12.827Z,53.95
2023-04-15T00:36:12.914Z,53.86
2023-04-15T00:37:12.967Z,54.28
2023-04-15T00:38:13.029Z,54.21
2023-04-15T00:39:13.086Z,54.17
2023-04-15T00:40:13.228Z,53.99
2023-04-15T00:41:13.272Z,52.63
2023-04-15T00:42:13.328Z,53.22
2023-04-15T00:43:13.391Z,53.52
2023-04-15T00:44:13.470Z,53.79
2023-04-15T00:45:13.535Z,53.45
2023-04-15T00:46:13.718Z,52.90
2023-04-15T00:47:13.844Z,52.92
2023-04-15T00:48:13.979Z,52.88
2023-04-15T00:49:14.048Z,53.86
2023-04-15T00:50:14.114Z,54.55
2023-04-15T00:51:14.176Z,54.69
2023-04-15T00:52:14.243Z,55.79
2023-04-15T00:53:14.408Z,56.26
2023-04-15T00:54:14.476Z,57.95
2023-04-15T00:55:14.575Z,58.21
2023-04-15T00:56:14.645Z,56.83
2023-04-15T00:57:14.708Z,56.57
2023-04-15T00:58:14.779Z,57.74
2023-04-15T00:59:14.916Z,58.59
2023-04-15T01:00:15.072Z,58.66
2023-04-15T01:01:15.224Z,57.98
2023-04-15T01:02:15.396Z,57.92
2023-04-15T01:03:15.465Z,56.09
2023-04-15T01:04:15.573Z,55.61
2023-04-15T01:05:15.722Z,54.30
2023-04-15T01:06:15.980Z,54.36
2023-04-15T01:07:16.243Z,53.63
2023-04-15T01:08:16.489Z,53.47
2023-04-15T01:09:16.731Z,53.36
2023-04-15T01:10:16.953Z,53.39
2023-04-15T01:11:17.157Z,50.80
2023-04-15T01:12:17.356Z,51.62
2023-04-15T01:13:17.662Z,51.93
2023-04-15T01:14:17.860Z,52.37
2023-04-15T01:15:18.147Z,52.47
2023-04-15T01:16:18.425Z,52.56
2023-04-15T01:17:18.669Z,52.98
2023-04-15T01:18:18.910Z,52.89
2023-04-15T01:19:19.168Z,52.74
2023-04-15T01:20:19.456Z,54.05
2023-04-15T01:21:19.665Z,54.40
2023-04-15T01:22:19.900Z,56.21
2023-04-15T01:23:20.158Z,57.00
2023-04-15T01:24:20.427Z,56.71
2023-04-15T01:25:20.696Z,56.98
2023-04-15T01:26:20.988Z,57.79
2023-04-15T01:27:21.295Z,57.53
2023-04-15T01:28:21.602Z,57.08
2023-04-15T01:29:21.882Z,57.13
2023-04-15T01:30:22.189Z,57.39
2023-04-15T01:31:22.541Z,56.61
2023-04-15T01:32:22.813Z,57.12
2023-04-15T01:33:23.034Z,57.82
2023-04-15T01:34:23.322Z,58.49
2023-04-15T01:35:23.635Z,58.59
2023-04-15T01:36:23.881Z,58.35
2023-04-15T01:37:24.179Z,58.11
2023-04-15T01:38:24.493Z,58.24
2023-04-15T01:39:24.770Z,58.43
2023-04-15T01:40:25.057Z,58.31
2023-04-15T01:41:25.345Z,58.31
2023-04-15T01:42:25.665Z,58.49
2023-04-15T01:43:25.956Z,58.38
2023-04-15T01:44:26.276Z,57.69
2023-04-15T01:45:26.575Z,57.59
2023-04-15T01:46:26.908Z,57.84
2023-04-15T01:47:27.249Z,56.73
2023-04-15T01:48:27.377Z,56.99
2023-04-15T01:49:27.692Z,56.50
2023-04-15T01:50:27.972Z,55.47
2023-04-15T01:51:28.260Z,54.47
2023-04-15T01:52:28.542Z,54.52
2023-04-15T01:53:28.825Z,54.38
2023-04-15T01:54:29.095Z,54.81
2023-04-15T01:55:29.381Z,55.19
2023-04-15T01:56:29.666Z,55.38
2023-04-15T01:57:29.958Z,55.73
2023-04-15T01:58:30.242Z,56.38
2023-04-15T01:59:30.529Z,56.72
2023-04-15T02:00:30.830Z,55.94
2023-04-15T02:01:31.154Z,55.59
2023-04-15T02:02:31.490Z,55.99
2023-04-15T02:03:31.638Z,56.25
2023-04-15T02:04:31.808Z,56.65
2023-04-15T02:05:32.009Z,56.99
2023-04-15T02:06:32.292Z,57.14
2023-04-15T02:07:32.502Z,57.43
2023-04-15T02:08:32.682Z,57.76
2023-04-15T02:09:33.076Z,57.46
2023-04-15T02:10:33.352Z,57.36
2023-04-15T02:11:33.637Z,57.71
2023-04-15T02:12:33.905Z,58.08
2023-04-15T02:13:34.157Z,57.71
2023-04-15T02:14:34.431Z,57.88
2023-04-15T02:15:34.704Z,57.65
2023-04-15T02:16:35.195Z,57.60
2023-04-15T02:17:35.190Z,57.39
2023-04-15T02:18:35.441Z,57.60
2023-04-15T02:19:35.653Z,58.10
2023-04-15T02:20:36.029Z,58.36
2023-04-15T02:21:36.336Z,58.19
2023-04-15T02:22:36.648Z,57.57
2023-04-15T02:23:36.950Z,56.92
2023-04-15T02:24:37.252Z,56.86
2023-04-15T02:25:37.536Z,56.80
2023-04-15T02:26:37.842Z,56.54
2023-04-15T02:27:38.143Z,55.90
2023-04-15T02:28:38.443Z,55.26
2023-04-15T02:29:38.737Z,54.66
2023-04-15T02:30:39.004Z,54.61
2023-04-15T02:31:39.258Z,54.42
2023-04-15T02:32:39.536Z,53.97
2023-04-15T02:33:39.728Z,53.74
2023-04-15T02:34:39.972Z,54.03
2023-04-15T02:35:40.218Z,53.63
2023-04-15T02:36:41.468Z,52.90
2023-04-15T02:37:40.650Z,52.78
2023-04-15T02:38:40.751Z,52.73
2023-04-15T02:39:40.831Z,52.88
2023-04-15T02:40:40.953Z,53.59
2023-04-15T02:41:41.058Z,54.18
2023-04-15T02:42:41.190Z,54.61
2023-04-15T02:43:41.293Z,55.40
2023-04-15T02:44:41.410Z,55.36
2023-04-15T02:45:41.544Z,55.18
2023-04-15T02:46:41.645Z,56.72
2023-04-15T02:47:41.849Z,57.85
2023-04-15T02:48:41.931Z,57.94
2023-04-15T02:49:41.991Z,56.67
2023-04-15T02:50:42.122Z,55.86
2023-04-15T02:51:42.193Z,56.33
2023-04-15T02:52:42.307Z,55.55
2023-04-15T02:53:42.409Z,55.23
2023-04-15T02:54:42.493Z,55.47
2023-04-15T02:55:42.600Z,55.97
2023-04-15T02:56:42.693Z,55.81
2023-04-15T02:57:42.812Z,55.84
2023-04-15T02:58:42.926Z,56.03
2023-04-15T02:59:43.032Z,56.28
2023-04-15T03:00:43.145Z,55.83
2023-04-15T03:01:43.292Z,55.06
2023-04-15T03:02:43.671Z,53.95
2023-04-15T03:03:43.533Z,53.35
2023-04-15T03:04:43.646Z,53.54
2023-04-15T03:05:43.713Z,53.03
2023-04-15T03:06:43.845Z,53.58
2023-04-15T03:07:43.970Z,52.99
2023-04-15T03:08:44.074Z,52.61
2023-04-15T03:09:44.215Z,52.86
2023-04-15T03:10:44.331Z,52.69
2023-04-15T03:11:44.426Z,52.67
2023-04-15T03:12:44.651Z,53.03
2023-04-15T03:13:44.947Z,53.05
2023-04-15T03:14:45.226Z,52.55
2023-04-15T03:15:45.369Z,52.29
2023-04-15T03:16:45.451Z,52.20
2023-04-15T03:17:46.044Z,52.73
2023-04-15T03:18:45.666Z,53.39
2023-04-15T03:19:45.791Z,53.77
2023-04-15T03:20:45.926Z,53.35
2023-04-15T03:21:46.015Z,54.09
2023-04-15T03:22:46.105Z,54.42
2023-04-15T03:23:46.200Z,54.38
2023-04-15T03:24:46.291Z,53.96
2023-04-15T03:25:46.387Z,53.28
2023-04-15T03:26:46.487Z,54.22
2023-04-15T03:27:46.573Z,54.40
2023-04-15T03:28:46.662Z,55.07
2023-04-15T03:29:46.767Z,55.48
2023-04-15T03:30:46.881Z,57.03
2023-04-15T03:31:47.002Z,57.36
2023-04-15T03:32:47.168Z,56.99
2023-04-15T03:33:47.234Z,56.76
2023-04-15T03:34:47.362Z,56.13
2023-04-15T03:35:47.474Z,55.96
2023-04-15T03:36:47.564Z,56.12
2023-04-15T03:37:47.645Z,56.71
2023-04-15T03:38:47.778Z,57.55
2023-04-15T03:39:47.836Z,58.10
2023-04-15T03:40:47.938Z,58.24
2023-04-15T03:41:48.031Z,58.51
2023-04-15T03:42:48.117Z,57.70
2023-04-15T03:43:48.220Z,56.38
2023-04-15T03:44:48.309Z,55.18
2023-04-15T03:45:48.398Z,54.17
2023-04-15T03:46:48.571Z,54.06
2023-04-15T03:47:48.591Z,56.20
2023-04-15T03:48:48.680Z,55.91
2023-04-15T03:49:48.746Z,55.97
2023-04-15T03:50:48.810Z,55.66
2023-04-15T03:51:48.891Z,56.73
2023-04-15T03:52:50.722Z,56.37
2023-04-15T03:53:49.048Z,56.59
2023-04-15T03:54:49.140Z,56.55
2023-04-15T03:55:49.249Z,56.75
2023-04-15T03:56:49.332Z,56.83
2023-04-15T03:57:49.478Z,57.04
2023-04-15T03:58:49.630Z,57.77
2023-04-15T03:59:49.772Z,58.48
2023-04-15T04:00:49.929Z,57.62
2023-04-15T04:01:50.171Z,58.07
2023-04-15T04:02:50.415Z,58.37
2023-04-15T04:03:50.604Z,57.77
2023-04-15T04:04:50.753Z,57.68
2023-04-15T04:05:50.654Z,57.06
2023-04-15T04:06:50.726Z,56.59
2023-04-15T04:07:50.803Z,56.71
2023-04-15T04:08:50.911Z,56.59
2023-04-15T04:09:50.992Z,55.88
2023-04-15T04:10:51.107Z,56.03
2023-04-15T04:11:51.245Z,55.90
2023-04-15T04:12:51.357Z,55.25
2023-04-15T04:13:51.439Z,54.71
2023-04-15T04:14:51.535Z,55.86
2023-04-15T04:15:51.744Z,54.89
2023-04-15T04:16:52.039Z,55.63
2023-04-15T04:17:52.200Z,55.04
2023-04-15T04:18:52.291Z,54.63
2023-04-15T04:19:52.409Z,54.96
2023-04-15T04:20:52.514Z,54.97
2023-04-15T04:21:52.625Z,54.00
2023-04-15T04:22:52.707Z,53.21
2023-04-15T04:23:52.782Z,52.94
2023-04-15T04:24:52.845Z,53.13
2023-04-15T04:25:52.894Z,53.09
2023-04-15T04:26:52.944Z,52.70
2023-04-15T04:27:52.995Z,53.24
2023-04-15T04:28:53.104Z,54.03
2023-04-15T04:29:53.231Z,53.82
2023-04-15T04:30:53.346Z,53.27
2023-04-15T04:31:53.504Z,52.91
2023-04-15T04:32:53.562Z,52.39
2023-04-15T04:33:53.810Z,52.19
2023-04-15T04:34:54.056Z,53.17
2023-04-15T04:35:54.298Z,53.57
2023-04-15T04:36:54.546Z,54.51
2023-04-15T04:37:54.787Z,54.01
2023-04-15T04:38:55.011Z,53.86
2023-04-15T04:39:55.245Z,53.71
2023-04-15T04:40:55.472Z,54.08
2023-04-15T04:41:55.698Z,54.10
2023-04-15T04:42:55.926Z,54.82
2023-04-15T04:43:56.972Z,53.69
2023-04-15T04:44:56.015Z,53.64
2023-04-15T04:45:56.088Z,53.59
2023-04-15T04:46:56.129Z,53.24
2023-04-15T04:47:56.297Z,53.09
2023-04-15T04:48:56.234Z,53.75
2023-04-15T04:49:56.282Z,53.53
2023-04-15T04:50:56.330Z,53.31
2023-04-15T04:51:56.395Z,53.19
2023-04-15T04:52:56.449Z,52.21
2023-04-15T04:53:56.501Z,52.43
2023-04-15T04:54:56.539Z,53.20
2023-04-15T04:55:56.587Z,52.61
2023-04-15T04:56:56.638Z,53.18
2023-04-15T04:57:56.683Z,52.43
2023-04-15T04:58:56.734Z,51.85
2023-04-15T04:59:56.855Z,51.88
2023-04-15T05:00:57.093Z,51.23
2023-04-15T05:01:57.400Z,51.28
2023-04-15T05:02:57.687Z,51.42
2023-04-15T05:03:57.900Z,51.91
2023-04-15T05:04:58.099Z,51.69
2023-04-15T05:05:58.377Z,51.04
2023-04-15T05:06:58.613Z,51.97
2023-04-15T05:07:58.919Z,52.90
2023-04-15T05:08:59.302Z,52.40
2023-04-15T05:09:59.291Z,51.54
2023-04-15T05:10:59.403Z,52.27
2023-04-15T05:11:59.473Z,53.71
2023-04-15T05:12:59.569Z,54.19
2023-04-15T05:13:59.651Z,53.90
2023-04-15T05:14:59.777Z,52.83
2023-04-15T05:15:59.925Z,53.52
2023-04-15T05:17:00.013Z,53.03
2023-04-15T05:18:00.234Z,53.02
2023-04-15T05:19:00.570Z,53.19
2023-04-15T05:20:00.428Z,53.55
2023-04-15T05:21:00.585Z,53.99
2023-04-15T05:22:00.689Z,53.29
2023-04-15T05:23:00.795Z,53.25
2023-04-15T05:24:00.868Z,53.57
2023-04-15T05:25:00.946Z,53.14
2023-04-15T05:26:00.979Z,53.22
2023-04-15T05:27:01.133Z,53.07
2023-04-15T05:28:01.153Z,52.90
2023-04-15T05:29:01.646Z,53.07
2023-04-15T05:30:01.326Z,53.42
2023-04-15T05:31:01.466Z,53.40
2023-04-15T05:32:01.579Z,54.01
2023-04-15T05:33:01.686Z,54.06
2023-04-15T05:34:01.723Z,52.50
2023-04-15T05:35:01.790Z,53.50
2023-04-15T05:36:01.857Z,53.10
2023-04-15T05:37:01.923Z,52.62
2023-04-15T05:38:01.979Z,52.50
2023-04-15T05:39:02.378Z,52.58
2023-04-15T05:40:02.232Z,52.55
2023-04-15T05:41:02.272Z,53.16
2023-04-15T05:42:02.362Z,53.80
2023-04-15T05:43:02.466Z,53.16
2023-04-15T05:44:02.567Z,53.06
2023-04-15T05:45:02.666Z,53.11
2023-04-15T05:46:02.803Z,53.18
2023-04-15T05:47:02.894Z,53.56
2023-04-15T05:48:02.999Z,53.02
2023-04-15T05:49:03.276Z,53.05
2023-04-15T05:50:03.263Z,52.87
2023-04-15T05:51:03.288Z,53.77
2023-04-15T05:52:03.345Z,53.06
2023-04-15T05:53:03.407Z,53.06
2023-04-15T05:54:03.501Z,51.89
2023-04-15T05:55:03.616Z,51.87
2023-04-15T05:56:03.739Z,51.32
2023-04-15T05:57:03.848Z,52.58
2023-04-15T05:58:04.054Z,53.58
2023-04-15T05:59:04.281Z,53.65
2023-04-15T06:00:04.512Z,53.37
2023-04-15T06:01:04.787Z,53.52
2023-04-15T06:02:04.996Z,53.25
2023-04-15T06:03:05.305Z,52.49
2023-04-15T06:04:05.494Z,52.26
2023-04-15T06:05:05.764Z,51.88
2023-04-15T06:06:05.935Z,51.64
2023-04-15T06:07:06.181Z,50.70
2023-04-15T06:08:06.443Z,50.61
2023-04-15T06:09:06.672Z,50.83
2023-04-15T06:10:06.942Z,50.70
2023-04-15T06:11:07.098Z,51.37
2023-04-15T06:12:07.344Z,51.94
2023-04-15T06:13:07.604Z,52.64
2023-04-15T06:14:07.861Z,51.36
2023-04-15T06:15:08.125Z,51.36
2023-04-15T06:16:08.427Z,51.21
2023-04-15T06:17:08.590Z,51.64
2023-04-15T06:18:08.794Z,51.56
2023-04-15T06:19:09.024Z,51.52
2023-04-15T06:20:09.220Z,52.21
2023-04-15T06:21:09.547Z,51.77
2023-04-15T06:22:09.768Z,51.93
2023-04-15T06:23:09.995Z,51.74
2023-04-15T06:24:10.235Z,51.81
2023-04-15T06:25:10.420Z,51.99
2023-04-15T06:26:10.633Z,52.13
2023-04-15T06:27:10.868Z,51.90
2023-04-15T06:28:11.096Z,51.68
2023-04-15T06:29:11.327Z,50.71
2023-04-15T06:30:11.535Z,50.74
2023-04-15T06:31:11.908Z,50.87
2023-04-15T06:32:12.128Z,50.49
2023-04-15T06:33:12.343Z,51.85
2023-04-15T06:34:12.586Z,51.63
2023-04-15T06:35:12.780Z,51.53
2023-04-15T06:36:13.102Z,50.94
2023-04-15T06:37:13.361Z,51.28
2023-04-15T06:38:13.604Z,51.78
2023-04-15T06:39:13.859Z,51.66
2023-04-15T06:40:14.202Z,51.35
2023-04-15T06:41:14.408Z,51.17
2023-04-15T06:42:14.652Z,51.17
2023-04-15T06:43:14.948Z,52.07
2023-04-15T06:44:15.138Z,51.73
2023-04-15T06:45:15.430Z,52.34
2023-04-15T06:46:15.728Z,52.59
2023-04-15T06:47:15.980Z,52.37
2023-04-15T06:48:16.214Z,53.11
2023-04-15T06:49:16.421Z,52.26
2023-04-15T06:50:16.640Z,52.09
2023-04-15T06:51:16.860Z,51.67
2023-04-15T06:52:17.216Z,51.59
2023-04-15T06:53:17.424Z,50.93
2023-04-15T06:54:17.634Z,51.26
2023-04-15T06:55:17.868Z,51.50
2023-04-15T06:56:18.199Z,51.18
2023-04-15T06:57:18.405Z,50.77
2023-04-15T06:58:18.623Z,50.85
2023-04-15T06:59:18.844Z,49.91
2023-04-15T07:00:19.047Z,49.78
2023-04-15T07:01:19.377Z,49.42
2023-04-15T07:02:19.640Z,48.87
2023-04-15T07:03:19.773Z,49.26
2023-04-15T07:04:20.054Z,48.28
2023-04-15T07:05:20.256Z,48.34
2023-04-15T07:06:20.454Z,48.56
2023-04-15T07:07:20.677Z,47.80
2023-04-15T07:08:20.888Z,47.56
2023-04-15T07:09:21.099Z,46.91
2023-04-15T07:10:21.338Z,46.42
2023-04-15T07:11:21.582Z,46.64
2023-04-15T07:12:21.835Z,46.46
2023-04-15T07:13:22.093Z,46.15
2023-04-15T07:14:22.339Z,46.11
2023-04-15T07:15:22.594Z,47.13
2023-04-15T07:16:22.837Z,47.26
2023-04-15T07:17:23.021Z,47.48
2023-04-15T07:18:23.193Z,46.73
2023-04-15T07:19:23.483Z,45.82
2023-04-15T07:20:23.656Z,45.70
2023-04-15T07:21:23.852Z,45.61
2023-04-15T07:22:24.147Z,46.27
2023-04-15T07:23:24.340Z,46.48
2023-04-15T07:24:24.622Z,45.37
2023-04-15T07:25:24.834Z,45.43
2023-04-15T07:26:25.035Z,45.41
2023-04-15T07:27:25.289Z,45.47
2023-04-15T07:28:25.552Z,45.48
2023-04-15T07:29:25.820Z,45.34
2023-04-15T07:30:26.151Z,45.16
2023-04-15T07:31:26.264Z,44.83
2023-04-15T07:32:26.553Z,45.44
2023-04-15T07:33:26.699Z,45.61
2023-04-15T07:34:26.958Z,44.96
2023-04-15T07:35:27.218Z,45.12
2023-04-15T07:36:27.416Z,45.07
2023-04-15T07:37:27.614Z,45.19
2023-04-15T07:38:27.862Z,44.82
2023-04-15T07:39:28.090Z,44.88
2023-04-15T07:40:28.378Z,44.73
2023-04-15T07:41:28.648Z,44.43
2023-04-15T07:42:28.819Z,44.49
2023-04-15T07:43:29.106Z,44.51
2023-04-15T07:44:29.310Z,44.70
2023-04-15T07:45:29.504Z,44.67
2023-04-15T07:46:29.799Z,44.99
2023-04-15T07:47:30.031Z,44.41
2023-04-15T07:48:30.197Z,44.57
2023-04-15T07:49:30.367Z,44.43
2023-04-15T07:50:30.569Z,44.44
2023-04-15T07:51:30.869Z,43.96
2023-04-15T07:52:31.026Z,43.82
2023-04-15T07:53:31.362Z,43.88
2023-04-15T07:54:31.490Z,43.94
2023-04-15T07:55:31.725Z,43.35
2023-04-15T07:56:31.919Z,43.63
2023-04-15T07:57:32.129Z,44.24
2023-04-15T07:58:32.353Z,44.53
2023-04-15T07:59:32.568Z,44.03
2023-04-15T08:00:32.844Z,43.90
2023-04-15T08:01:33.108Z,44.19
2023-04-15T08:02:33.371Z,43.82
2023-04-15T08:03:33.640Z,43.90
2023-04-15T08:04:33.815Z,43.67
2023-04-15T08:05:33.942Z,43.77
2023-04-15T08:06:34.118Z,43.65
2023-04-15T08:07:34.336Z,43.29
2023-04-15T08:08:34.538Z,43.46
2023-04-15T08:09:34.731Z,43.46
2023-04-15T08:10:34.927Z,43.29
2023-04-15T08:11:35.133Z,43.70
2023-04-15T08:12:35.338Z,43.72
2023-04-15T08:13:35.529Z,44.11
2023-04-15T08:14:35.701Z,44.05
2023-04-15T08:15:35.896Z,43.66
2023-04-15T08:16:36.126Z,43.54
2023-04-15T08:17:36.402Z,42.84
2023-04-15T08:18:36.571Z,42.44
2023-04-15T08:19:36.784Z,42.66
2023-04-15T08:20:36.991Z,42.90
2023-04-15T08:21:37.287Z,42.18
2023-04-15T08:22:37.519Z,41.98
2023-04-15T08:23:37.752Z,42.03
2023-04-15T08:24:37.977Z,41.39
2023-04-15T08:25:38.004Z,41.14
2023-04-15T08:26:38.022Z,41.50
2023-04-15T08:27:38.080Z,41.49
2023-04-15T08:28:38.050Z,41.44
2023-04-15T08:29:38.081Z,40.81
2023-04-15T08:30:38.109Z,40.44
2023-04-15T08:31:38.181Z,40.52
2023-04-15T08:32:38.157Z,40.30
2023-04-15T08:33:38.160Z,40.39
2023-04-15T08:34:38.198Z,40.17
2023-04-15T08:35:38.222Z,40.27
2023-04-15T08:36:38.271Z,40.56
2023-04-15T08:37:38.282Z,39.93
2023-04-15T08:38:38.303Z,40.38
2023-04-15T08:39:38.325Z,40.79
2023-04-15T08:40:38.358Z,39.70
2023-04-15T08:41:38.398Z,39.50
2023-04-15T08:42:38.505Z,39.73
2023-04-15T08:43:38.491Z,39.27
2023-04-15T08:44:38.543Z,38.94
2023-04-15T08:45:38.606Z,38.53
2023-04-15T08:46:38.666Z,38.96
2023-04-15T08:47:38.757Z,39.29
2023-04-15T08:48:38.725Z,39.15
2023-04-15T08:49:38.793Z,39.34
2023-04-15T08:50:38.848Z,39.23
2023-04-15T08:51:38.898Z,39.10
2023-04-15T08:52:38.969Z,39.16
2023-04-15T08:53:38.995Z,38.53
2023-04-15T08:54:39.048Z,38.94
2023-04-15T08:55:39.076Z,38.18
2023-04-15T08:56:39.175Z,38.27
2023-04-15T08:57:39.167Z,38.50
2023-04-15T08:58:39.203Z,38.23
2023-04-15T08:59:39.190Z,37.72
2023-04-15T09:00:39.195Z,38.00
2023-04-15T09:01:39.326Z,37.48
2023-04-15T09:02:40.210Z,37.30
2023-04-15T09:03:39.307Z,37.02
2023-04-15T09:04:39.233Z,35.85
2023-04-15T09:05:39.259Z,35.33
2023-04-15T09:06:39.262Z,35.17
2023-04-15T09:07:39.309Z,35.32
2023-04-15T09:08:39.326Z,35.20
2023-04-15T09:09:39.333Z,35.14
2023-04-15T09:10:39.313Z,35.20
2023-04-15T09:11:39.320Z,35.62
2023-04-15T09:12:39.369Z,35.81
2023-04-15T09:13:39.401Z,36.10
2023-04-15T09:14:39.422Z,36.29
2023-04-15T09:15:39.457Z,35.30
2023-04-15T09:16:39.485Z,35.61
2023-04-15T09:17:39.513Z,35.73
2023-04-15T09:18:39.449Z,35.55
2023-04-15T09:19:39.420Z,35.88
2023-04-15T09:20:39.419Z,36.15
2023-04-15T09:21:39.404Z,34.97
2023-04-15T09:22:39.394Z,35.00
2023-04-15T09:23:39.378Z,34.77
2023-04-15T09:24:39.409Z,35.51
2023-04-15T09:25:39.400Z,35.46
2023-04-15T09:26:39.412Z,35.85
2023-04-15T09:27:39.427Z,35.58
2023-04-15T09:28:39.413Z,34.25
2023-04-15T09:29:39.409Z,33.37
2023-04-15T09:30:39.465Z,33.61
2023-04-15T09:31:39.464Z,33.74
2023-04-15T09:32:39.505Z,33.05
2023-04-15T09:33:39.459Z,33.29
2023-04-15T09:34:39.450Z,33.09
2023-04-15T09:35:39.566Z,32.79
2023-04-15T09:36:39.795Z,33.00
2023-04-15T09:37:40.076Z,32.71
2023-04-15T09:38:40.224Z,33.28
2023-04-15T09:39:40.447Z,33.38
2023-04-15T09:40:40.596Z,33.62
2023-04-15T09:41:40.906Z,33.69
2023-04-15T09:42:41.080Z,32.91
2023-04-15T09:43:41.246Z,32.51
2023-04-15T09:44:41.401Z,31.81
2023-04-15T09:45:41.632Z,31.43
2023-04-15T09:46:41.865Z,32.07
2023-04-15T09:47:42.029Z,31.94
2023-04-15T09:48:42.203Z,30.86
2023-04-15T09:49:42.512Z,30.09
2023-04-15T09:50:42.644Z,29.68
2023-04-15T09:51:48.649Z,28.45
2023-04-15T09:52:43.823Z,28.92
2023-04-15T09:53:42.748Z,29.36
2023-04-15T09:54:42.671Z,30.28
2023-04-15T09:55:42.578Z,29.46
2023-04-15T09:56:42.500Z,28.07
2023-04-15T09:57:42.442Z,28.50
2023-04-15T09:58:42.368Z,27.33
2023-04-15T09:59:42.296Z,28.08
2023-04-15T10:00:42.224Z,28.30
2023-04-15T10:01:42.217Z,27.33
2023-04-15T10:02:42.214Z,27.89
2023-04-15T10:03:42.166Z,27.11
2023-04-15T10:04:42.111Z,27.71
2023-04-15T10:05:42.089Z,28.28
2023-04-15T10:06:42.064Z,28.50
2023-04-15T10:07:42.038Z,29.07
2023-04-15T10:08:41.996Z,28.82
2023-04-15T10:09:41.985Z,28.68
2023-04-15T10:10:41.873Z,29.27
2023-04-15T10:11:41.818Z,28.69
2023-04-15T10:12:41.772Z,27.51
2023-04-15T10:13:41.713Z,27.06
2023-04-15T10:14:41.643Z,28.19
2023-04-15T10:15:41.612Z,27.94
2023-04-15T10:16:41.519Z,26.43
2023-04-15T10:17:41.519Z,26.57
2023-04-15T10:18:41.428Z,27.37
2023-04-15T10:19:41.405Z,26.94
2023-04-15T10:20:41.380Z,27.52
2023-04-15T10:21:41.596Z,26.25
2023-04-15T10:22:41.707Z,26.45
2023-04-15T10:23:41.963Z,26.09
2023-04-15T10:24:42.155Z,26.81
2023-04-15T10:25:42.235Z,26.38
2023-04-15T10:26:42.400Z,25.67
2023-04-15T10:27:42.592Z,25.51
2023-04-15T10:28:42.787Z,25.74
2023-04-15T10:29:42.983Z,24.96
2023-04-15T10:30:43.207Z,24.69
2023-04-15T10:31:43.393Z,25.54
2023-04-15T10:32:43.582Z,24.97
2023-04-15T10:33:43.737Z,24.46
2023-04-15T10:34:43.911Z,25.09
2023-04-15T10:35:44.073Z,24.39
2023-04-15T10:36:44.324Z,24.85
2023-04-15T10:37:44.513Z,25.36
2023-04-15T10:38:44.687Z,24.83
2023-04-15T10:39:44.896Z,24.80
2023-04-15T10:40:45.061Z,24.35
2023-04-15T10:41:45.247Z,24.44
2023-04-15T10:42:45.439Z,24.67
2023-04-15T10:43:45.598Z,24.72
2023-04-15T10:44:45.851Z,24.16
2023-04-15T10:45:46.031Z,24.77
2023-04-15T10:46:46.218Z,24.37
2023-04-15T10:47:46.564Z,24.28
2023-04-15T10:48:46.612Z,23.30
2023-04-15T10:49:46.780Z,23.41
2023-04-15T10:50:47.068Z,23.57
2023-04-15T10:51:47.187Z,23.80
2023-04-15T10:52:47.555Z,23.95
2023-04-15T10:53:47.581Z,24.58
2023-04-15T10:54:47.838Z,24.73
2023-04-15T10:55:48.019Z,24.80
2023-04-15T10:56:48.224Z,24.19
2023-04-15T10:57:48.406Z,24.42
2023-04-15T10:58:48.605Z,24.84
2023-04-15T10:59:48.759Z,24.13
2023-04-15T11:00:48.924Z,24.70
2023-04-15T11:01:49.209Z,26.39
2023-04-15T11:02:49.442Z,25.79
2023-04-15T11:03:49.770Z,24.74
2023-04-15T11:04:49.754Z,24.51
2023-04-15T11:05:49.974Z,26.52
2023-04-15T11:06:50.127Z,26.35
2023-04-15T11:07:50.348Z,26.64
2023-04-15T11:08:50.549Z,24.63
2023-04-15T11:09:50.680Z,24.63
2023-04-15T11:10:50.807Z,25.07
2023-04-15T11:11:51.044Z,24.89
2023-04-15T11:12:51.185Z,25.67
2023-04-15T11:13:51.414Z,26.67
2023-04-15T11:14:51.550Z,25.67
2023-04-15T11:15:51.667Z,26.62
2023-04-15T11:16:52.049Z,25.14
2023-04-15T11:17:52.075Z,24.71
2023-04-15T11:18:52.238Z,24.50
2023-04-15T11:19:52.439Z,24.58
2023-04-15T11:20:52.655Z,25.63
2023-04-15T11:21:52.812Z,26.39
2023-04-15T11:22:52.957Z,26.06
2023-04-15T11:23:53.848Z,26.02
2023-04-15T11:24:52.738Z,25.06
2023-04-15T11:25:52.620Z,26.89
2023-04-15T11:26:52.510Z,24.88
2023-04-15T11:27:52.448Z,25.26
2023-04-15T11:28:52.311Z,24.67
2023-04-15T11:29:52.195Z,24.99
2023-04-15T11:30:52.108Z,24.88
2023-04-15T11:31:52.047Z,24.81
2023-04-15T11:32:51.999Z,23.56
2023-04-15T11:33:51.878Z,24.07
2023-04-15T11:34:51.825Z,25.04
2023-04-15T11:35:51.761Z,25.41
2023-04-15T11:36:51.716Z,25.83
2023-04-15T11:37:51.653Z,24.41
2023-04-15T11:38:51.823Z,24.60
2023-04-15T11:39:52.055Z,24.26
2023-04-15T11:40:52.069Z,24.33
2023-04-15T11:41:52.260Z,24.06
2023-04-15T11:42:52.520Z,24.22
2023-04-15T11:43:52.616Z,23.90
2023-04-15T11:44:52.872Z,23.63
2023-04-15T11:45:53.320Z,23.97
2023-04-15T11:46:53.224Z,24.36
2023-04-15T11:47:53.443Z,24.60
2023-04-15T11:48:53.656Z,25.32
2023-04-15T11:49:53.879Z,25.70
2023-04-15T11:50:54.018Z,26.52
2023-04-15T11:51:54.242Z,25.45
2023-04-15T11:52:54.361Z,25.21
2023-04-15T11:53:54.580Z,24.11
2023-04-15T11:54:54.712Z,24.36
2023-04-15T11:55:54.918Z,26.14
2023-04-15T11:56:55.048Z,25.82
2023-04-15T11:57:55.267Z,25.11
2023-04-15T11:58:55.395Z,25.60
2023-04-15T11:59:55.632Z,24.93
2023-04-15T12:00:55.858Z,24.35
2023-04-15T12:01:56.018Z,24.34
2023-04-15T12:02:56.343Z,24.84
2023-04-15T12:03:56.504Z,25.26
2023-04-15T12:04:56.604Z,24.92
2023-04-15T12:05:56.805Z,24.72
2023-04-15T12:06:57.040Z,23.93
2023-04-15T12:07:57.943Z,23.77
2023-04-15T12:08:56.844Z,23.52
2023-04-15T12:09:56.731Z,23.80
2023-04-15T12:10:56.616Z,23.81
2023-04-15T12:11:56.501Z,24.23
2023-04-15T12:12:56.387Z,24.08
2023-04-15T12:13:56.271Z,23.86
2023-04-15T12:14:56.158Z,24.76
2023-04-15T12:15:56.078Z,25.25
2023-04-15T12:16:58.210Z,24.45
2023-04-15T12:17:55.839Z,24.86
2023-04-15T12:18:55.704Z,24.54
2023-04-15T12:19:55.600Z,25.47
2023-04-15T12:20:55.498Z,24.85
2023-04-15T12:21:55.399Z,25.14
2023-04-15T12:22:55.284Z,24.61
2023-04-15T12:23:55.344Z,24.69
2023-04-15T12:24:55.558Z,24.90
2023-04-15T12:25:55.715Z,25.32
2023-04-15T12:26:55.878Z,25.25
2023-04-15T12:27:56.103Z,26.07
2023-04-15T12:28:56.296Z,25.93
2023-04-15T12:29:56.494Z,26.07
2023-04-15T12:30:56.690Z,25.76
2023-04-15T12:31:56.813Z,26.16
2023-04-15T12:32:57.002Z,26.17
2023-04-15T12:33:57.255Z,26.55
2023-04-15T12:34:57.415Z,25.96
2023-04-15T12:35:57.540Z,26.28
2023-04-15T12:36:57.696Z,25.85
2023-04-15T12:37:57.965Z,26.67
2023-04-15T12:38:58.067Z,27.04
2023-04-15T12:39:58.303Z,26.94
2023-04-15T12:40:58.445Z,26.88
2023-04-15T12:41:58.646Z,24.22
2023-04-15T12:42:58.833Z,23.92
2023-04-15T12:43:58.987Z,23.47
2023-04-15T12:44:59.199Z,23.86
2023-04-15T12:45:59.353Z,23.86
2023-04-15T12:46:59.666Z,24.58
2023-04-15T12:47:59.867Z,25.61
2023-04-15T12:49:00.032Z,25.68
2023-04-15T12:50:00.203Z,25.58
2023-04-15T12:51:00.327Z,25.59
2023-04-15T12:52:00.516Z,26.65
2023-04-15T12:53:00.714Z,26.78
2023-04-15T12:54:00.912Z,27.32